Terminal Aerodrome Forecast
Issued by NWS Norman, OK

Home | Current Version | Previous Version | Text Only | Print | Product List | Glossary On
Versions: 1 2 3 4 5 6 7 8 9 10 11 12 13 14 15 16 17 18 19 20 21 22 23 24 25 26
000
FTUS44 KOUN 260521
TAFSPS
TAF
KSPS 260521Z 2606/2706 20008KT P6SM FEW250
     FM261100 12007KT P6SM SCT250
     FM261800 10010KT P6SM SCT035
     FM262100 15013KT P6SM SCT050
      TEMPO 2621/2624 3SM TSRA BR OVC030CB
     FM270000 14008KT 5SM -RA OVC030
      TEMPO 2700/2704 3SM TSRA BR OVC025CB=

USA.gov is the U.S. government's official web portal to all federal, state and local government web resources and services.